Time;durP1;ratioP1;P1;durP2;ratioP2;P2;SDS_P1;SDS_P2;PMS_P1;PMS_P2;Temp;Humidity;BMP_temperature;BMP_pressure;BME280_temperature;BME280_humidity;BME280_pressure;Samples;Min_cycle;Max_cycle;Signal;HPM_P1;HPM_P2
2021/07/27 00:00:33;;;;;;;13.50;10.57;;;26.10;68.60;;;;;;5035120;28;20026;-73
2021/07/27 00:03:03;;;;;;;15.43;10.98;;;26.10;68.90;;;;;;5035303;28;20054;-73
2021/07/27 00:05:29;;;;;;;14.40;11.50;;;26.10;68.90;;;;;;5034808;28;20029;-72
2021/07/27 00:07:55;;;;;;;13.10;10.73;;;26.10;69.00;;;;;;5033800;28;20049;-74
2021/07/27 00:10:21;;;;;;;12.05;10.43;;;26.10;69.30;;;;;;5035059;28;20097;-73
2021/07/27 00:12:47;;;;;;;13.90;10.45;;;26.00;69.40;;;;;;5035090;28;20452;-73
2021/07/27 00:15:13;;;;;;;13.02;9.55;;;26.10;69.30;;;;;;5034998;28;20030;-73
2021/07/27 00:17:39;;;;;;;11.48;9.55;;;26.10;69.20;;;;;;5034645;28;20083;-73
2021/07/27 00:20:06;;;;;;;13.95;9.45;;;26.00;69.10;;;;;;5034892;28;20074;-73
2021/07/27 00:22:32;;;;;;;11.15;9.77;;;26.00;69.10;;;;;;5034920;28;20025;-73
2021/07/27 00:25:00;;;;;;;11.38;9.63;;;26.00;69.00;;;;;;5034564;28;20396;-73
2021/07/27 00:27:27;;;;;;;13.40;10.10;;;26.00;69.10;;;;;;5035284;28;20079;-73
2021/07/27 00:29:52;;;;;;;14.63;10.50;;;26.00;69.20;;;;;;5035253;28;20030;-73
2021/07/27 00:32:18;;;;;;;13.95;10.70;;;26.00;69.10;;;;;;5034257;28;20160;-73
2021/07/27 00:34:44;;;;;;;12.15;10.73;;;26.00;69.10;;;;;;5034387;28;20053;-73
2021/07/27 00:37:16;;;;;;;12.82;10.77;;;26.00;69.20;;;;;;5034555;28;20044;-73
2021/07/27 00:39:43;;;;;;;14.55;10.65;;;26.00;69.20;;;;;;5035129;28;20479;-73
2021/07/27 00:42:10;;;;;;;15.55;12.38;;;25.90;69.20;;;;;;5034557;28;20033;-73
2021/07/27 00:44:36;;;;;;;13.10;11.50;;;25.90;69.40;;;;;;5034397;28;20075;-73
2021/07/27 00:47:02;;;;;;;17.50;11.30;;;25.90;69.40;;;;;;5034440;28;20033;-73
2021/07/27 00:49:27;;;;;;;14.20;11.15;;;25.90;69.40;;;;;;5034435;28;20030;-73
2021/07/27 00:51:53;;;;;;;18.60;11.73;;;25.90;69.40;;;;;;5034276;28;20018;-73
2021/07/27 00:54:19;;;;;;;14.18;11.55;;;25.90;69.40;;;;;;5034287;28;20460;-73
2021/07/27 00:56:45;;;;;;;13.65;10.40;;;25.90;69.70;;;;;;5033926;28;20025;-73
2021/07/27 00:59:11;;;;;;;17.92;13.30;;;25.80;69.60;;;;;;5034986;28;20083;-73
2021/07/27 01:01:36;;;;;;;13.40;11.70;;;25.80;69.90;;;;;;5033968;28;20482;-72
2021/07/27 01:04:02;;;;;;;16.23;12.40;;;25.80;69.90;;;;;;5034347;28;20026;-73
2021/07/27 01:06:28;;;;;;;16.10;13.93;;;25.70;70.10;;;;;;5034105;28;20053;-73
2021/07/27 01:08:54;;;;;;;20.35;15.55;;;25.70;70.20;;;;;;5033989;28;20033;-73
2021/07/27 01:11:22;;;;;;;18.38;14.25;;;25.60;70.30;;;;;;5033899;28;20060;-73
2021/07/27 01:13:48;;;;;;;18.33;16.38;;;25.60;70.60;;;;;;5032313;28;20037;-73
2021/07/27 01:16:14;;;;;;;39.17;30.60;;;25.60;70.70;;;;;;5033619;28;20039;-73
2021/07/27 01:18:48;;;;;;;24.52;19.63;;;25.60;70.70;;;;;;5033851;28;20030;-73
2021/07/27 01:37:48;;;;;;;20.75;17.63;;;25.30;71.10;;;;;;5033619;28;20076;-73
2021/07/27 01:40:16;;;;;;;20.17;15.75;;;25.20;71.10;;;;;;5033528;28;20125;-73
2021/07/27 01:42:42;;;;;;;15.13;12.07;;;25.20;71.40;;;;;;5033551;28;20372;-73
2021/07/27 01:45:10;;;;;;;14.57;13.07;;;25.20;71.40;;;;;;5033267;28;20036;-74
2021/07/27 01:47:36;;;;;;;13.38;10.30;;;25.20;71.50;;;;;;5033521;28;20041;-73
2021/07/27 01:50:02;;;;;;;11.05;8.60;;;25.20;71.60;;;;;;5033757;28;20152;-74
2021/07/27 01:52:28;;;;;;;11.57;9.32;;;25.10;71.70;;;;;;5032137;28;20101;-73
2021/07/27 01:54:57;;;;;;;11.02;9.63;;;25.20;71.80;;;;;;5033430;28;20030;-73
2021/07/27 01:57:30;;;;;;;12.95;10.13;;;25.10;71.90;;;;;;5033078;28;20551;-73
2021/07/27 02:00:01;;;;;;;14.45;10.95;;;25.10;72.10;;;;;;5033372;28;20030;-73
2021/07/27 02:02:27;;;;;;;15.82;11.77;;;25.10;72.20;;;;;;5033091;28;20060;-73
2021/07/27 02:04:53;;;;;;;17.63;12.02;;;25.10;72.10;;;;;;5033694;28;20379;-73
2021/07/27 02:07:18;;;;;;;15.85;12.10;;;25.10;72.20;;;;;;5032430;28;20076;-73
2021/07/27 02:09:46;;;;;;;15.63;11.82;;;25.10;72.30;;;;;;5033300;28;20021;-73
2021/07/27 02:12:20;;;;;;;19.45;11.80;;;25.10;72.30;;;;;;5034089;28;20022;-74
2021/07/27 02:15:06;;;;;;;18.42;12.57;;;25.00;72.20;;;;;;5033198;28;20026;-73
2021/07/27 02:17:33;;;;;;;17.50;13.80;;;25.00;72.20;;;;;;5033204;28;20449;-73
2021/07/27 02:19:59;;;;;;;19.13;14.57;;;25.00;72.50;;;;;;5033165;28;20156;-73
2021/07/27 02:22:25;;;;;;;16.70;14.35;;;25.00;72.80;;;;;;5033137;28;20026;-73
2021/07/27 02:24:51;;;;;;;21.45;14.25;;;25.00;73.00;;;;;;5034930;28;20032;-73
2021/07/27 02:27:16;;;;;;;18.83;13.70;;;25.00;73.10;;;;;;5037584;28;20030;-73
2021/07/27 02:29:42;;;;;;;23.88;16.08;;;25.00;73.10;;;;;;5037263;28;20459;-73
2021/07/27 02:32:11;;;;;;;22.25;15.82;;;25.00;73.80;;;;;;5037514;28;20033;-73
2021/07/27 02:34:36;;;;;;;22.38;16.52;;;25.00;73.40;;;;;;5037189;28;20026;-73
2021/07/27 02:37:05;;;;;;;18.35;15.50;;;25.00;73.50;;;;;;5037246;28;20033;-73
2021/07/27 02:39:34;;;;;;;21.17;13.98;;;25.00;73.80;;;;;;5037386;28;20472;-73
2021/07/27 02:41:59;;;;;;;24.20;15.98;;;25.00;73.70;;;;;;5036458;28;20080;-73
2021/07/27 02:44:25;;;;;;;20.55;15.35;;;25.00;73.70;;;;;;5037035;28;20025;-73
2021/07/27 02:46:51;;;;;;;21.13;15.95;;;25.00;73.80;;;;;;5036517;28;20480;-73
2021/07/27 02:49:17;;;;;;;21.70;15.77;;;25.00;73.80;;;;;;5036642;28;20034;-73
2021/07/27 02:51:50;;;;;;;20.17;14.98;;;25.00;73.80;;;;;;5036723;28;20029;-73
2021/07/27 02:54:17;;;;;;;21.37;15.50;;;25.00;73.90;;;;;;5036825;28;20061;-73
2021/07/27 02:56:42;;;;;;;18.33;14.77;;;25.10;73.90;;;;;;5035146;28;20087;-73
2021/07/27 02:59:08;;;;;;;16.98;14.57;;;25.10;74.00;;;;;;5036752;28;20033;-73
2021/07/27 03:01:34;;;;;;;22.20;14.57;;;25.10;74.00;;;;;;5037028;28;20029;-72
2021/07/27 03:03:59;;;;;;;21.92;15.38;;;25.10;73.90;;;;;;5036749;28;20101;-72
2021/07/27 03:06:28;;;;;;;19.52;14.60;;;25.20;73.90;;;;;;5036576;28;20448;-72
2021/07/27 03:11:25;;;;;;;25.35;15.30;;;25.20;74.00;;;;;;5036388;28;20543;-72
2021/07/27 03:13:54;;;;;;;19.23;13.98;;;25.20;74.00;;;;;;5036275;28;20029;-73
2021/07/27 03:16:22;;;;;;;17.95;13.38;;;25.20;74.10;;;;;;5036149;28;20029;-73
2021/07/27 03:18:51;;;;;;;18.38;14.20;;;25.20;74.20;;;;;;5036100;28;20115;-73
2021/07/27 03:21:23;;;;;;;17.05;14.52;;;25.20;74.30;;;;;;5036005;28;20025;-73
2021/07/27 03:23:50;;;;;;;16.10;13.25;;;25.30;74.50;;;;;;5036066;28;20061;-72
2021/07/27 03:26:18;;;;;;;21.98;13.65;;;25.30;74.30;;;;;;5035969;28;20033;-73
2021/07/27 03:28:44;;;;;;;18.67;15.07;;;25.40;74.30;;;;;;5035904;28;20084;-73
2021/07/27 03:31:10;;;;;;;21.92;14.18;;;25.40;74.00;;;;;;5035944;28;20049;-73
2021/07/27 03:33:36;;;;;;;22.70;14.77;;;25.40;73.60;;;;;;5035769;28;20025;-73
2021/07/27 03:36:02;;;;;;;19.38;13.32;;;25.50;73.60;;;;;;5035029;28;20553;-72
2021/07/27 03:38:27;;;;;;;24.35;15.13;;;25.50;73.30;;;;;;5035742;28;20022;-73
2021/07/27 03:41:03;;;;;;;20.98;14.35;;;25.50;73.30;;;;;;5035472;28;20022;-73
2021/07/27 03:43:28;;;;;;;17.58;13.13;;;25.60;73.20;;;;;;5036191;28;20053;-73
2021/07/27 03:45:54;;;;;;;19.50;14.00;;;25.60;73.70;;;;;;5035834;28;20072;-73
2021/07/27 03:48:20;;;;;;;17.05;13.52;;;25.60;74.30;;;;;;5035310;28;20021;-73
2021/07/27 03:50:45;;;;;;;17.05;13.13;;;25.70;74.00;;;;;;5035747;28;20049;-72
2021/07/27 03:53:16;;;;;;;15.10;12.07;;;25.80;74.10;;;;;;5035974;28;20025;-73
2021/07/27 03:55:42;;;;;;;15.77;12.40;;;25.80;74.70;;;;;;5035316;28;20030;-72
2021/07/27 03:58:07;;;;;;;14.10;11.77;;;25.90;75.00;;;;;;5035663;28;20036;-71
2021/07/27 04:00:33;;;;;;;19.80;12.27;;;26.00;75.10;;;;;;5035348;28;20025;-71
2021/07/27 04:03:05;;;;;;;17.90;12.73;;;26.10;74.20;;;;;;5035567;28;20072;-72
2021/07/27 04:05:35;;;;;;;17.85;13.00;;;26.10;73.70;;;;;;5035679;28;20037;-72
2021/07/27 04:08:01;;;;;;;20.50;11.60;;;26.20;73.30;;;;;;5033860;28;20033;-72
2021/07/27 04:10:27;;;;;;;18.60;13.25;;;26.30;72.80;;;;;;5035154;28;20030;-72
2021/07/27 04:12:53;;;;;;;18.38;12.13;;;26.40;72.70;;;;;;5035459;28;20025;-72
2021/07/27 04:15:28;;;;;;;23.13;14.02;;;26.50;72.20;;;;;;5035013;28;20474;-72
2021/07/27 04:17:54;;;;;;;23.77;14.68;;;26.60;72.10;;;;;;5034922;28;20037;-73
2021/07/27 04:20:19;;;;;;;17.35;14.40;;;26.60;72.20;;;;;;5034865;28;20029;-73
2021/07/27 04:22:51;;;;;;;20.15;14.18;;;26.70;72.20;;;;;;5034772;28;20022;-72
2021/07/27 04:25:16;;;;;;;23.58;16.25;;;26.80;72.20;;;;;;5035027;28;20021;-73
2021/07/27 04:27:42;;;;;;;25.27;16.95;;;26.90;71.90;;;;;;5034927;28;20035;-73
2021/07/27 04:30:08;;;;;;;20.63;16.88;;;26.90;71.70;;;;;;5035202;28;20033;-74
2021/07/27 04:32:34;;;;;;;18.70;16.45;;;27.00;71.40;;;;;;5034657;28;20131;-72
2021/07/27 04:34:59;;;;;;;22.63;17.02;;;27.10;71.10;;;;;;5034835;28;20494;-73
2021/07/27 04:37:25;;;;;;;29.45;20.85;;;27.20;70.40;;;;;;5034515;28;20391;-72
2021/07/27 04:39:51;;;;;;;25.98;20.65;;;27.20;69.40;;;;;;5033348;28;20029;-73
2021/07/27 04:42:17;;;;;;;25.70;21.08;;;27.30;68.60;;;;;;5034790;28;20034;-73
2021/07/27 04:44:42;;;;;;;30.40;20.05;;;27.30;67.60;;;;;;5034363;28;20040;-73
2021/07/27 04:47:08;;;;;;;27.02;19.92;;;27.40;67.10;;;;;;5034307;28;20040;-75
2021/07/27 04:49:34;;;;;;;23.10;20.65;;;27.50;66.70;;;;;;5034117;28;20021;-72
2021/07/27 04:52:05;;;;;;;19.73;16.30;;;27.60;66.40;;;;;;5034414;28;20079;-73
2021/07/27 04:54:41;;;;;;;25.98;16.42;;;27.60;64.90;;;;;;5034123;28;20464;-73
2021/07/27 04:57:10;;;;;;;19.00;14.13;;;27.60;64.50;;;;;;5034618;28;20037;-72
2021/07/27 04:59:35;;;;;;;18.63;13.18;;;27.60;63.90;;;;;;5034502;28;20033;-73
2021/07/27 05:02:05;;;;;;;18.15;12.18;;;27.70;63.90;;;;;;5034098;28;20064;-74
2021/07/27 05:05:02;;;;;;;19.83;12.57;;;27.70;63.60;;;;;;5033902;28;20052;-74
2021/07/27 05:07:37;;;;;;;16.77;11.05;;;27.70;63.60;;;;;;5033516;28;20398;-73
2021/07/27 05:10:04;;;;;;;15.68;10.23;;;27.70;63.50;;;;;;5034076;28;20076;-73
2021/07/27 05:12:30;;;;;;;20.42;11.30;;;27.80;63.30;;;;;;5033368;28;20372;-73
2021/07/27 05:14:56;;;;;;;20.20;10.00;;;27.80;62.70;;;;;;5034068;28;20045;-73
2021/07/27 05:17:21;;;;;;;13.65;9.52;;;27.80;62.30;;;;;;5033913;28;20456;-73
2021/07/27 05:19:53;;;;;;;11.07;9.48;;;27.90;62.30;;;;;;5032578;28;20033;-71
2021/07/27 05:22:21;;;;;;;13.20;9.77;;;27.90;63.00;;;;;;5032855;28;20490;-73
2021/07/27 05:24:47;;;;;;;15.50;9.48;;;27.90;62.40;;;;;;5032586;28;20025;-71
2021/07/27 05:27:13;;;;;;;14.23;8.88;;;27.90;62.60;;;;;;5033311;28;20034;-74
2021/07/27 05:29:38;;;;;;;14.02;9.90;;;28.00;63.10;;;;;;5033340;28;20364;-73
2021/07/27 05:32:04;;;;;;;12.45;9.50;;;28.10;63.80;;;;;;5033711;28;20032;-74
2021/07/27 05:34:30;;;;;;;16.30;10.52;;;28.20;64.40;;;;;;5033391;28;20091;-75
2021/07/27 05:36:56;;;;;;;15.05;9.75;;;28.20;64.60;;;;;;5033215;28;20038;-72
2021/07/27 05:39:21;;;;;;;16.15;9.60;;;28.30;64.20;;;;;;5033107;28;20029;-73
2021/07/27 05:41:47;;;;;;;13.00;9.60;;;28.30;64.20;;;;;;5033467;28;20097;-72
2021/07/27 05:44:13;;;;;;;14.57;8.85;;;28.40;64.00;;;;;;5032999;28;20381;-72
2021/07/27 05:46:39;;;;;;;13.80;8.57;;;28.40;63.60;;;;;;5033301;28;20032;-72
2021/07/27 05:49:08;;;;;;;11.80;8.65;;;28.50;63.50;;;;;;5033224;28;20040;-72
2021/07/27 05:51:34;;;;;;;22.08;8.57;;;28.50;62.70;;;;;;5033449;28;20387;-72
2021/07/27 05:54:00;;;;;;;12.60;7.55;;;28.60;62.40;;;;;;5033249;28;20036;-72
2021/07/27 05:56:25;;;;;;;13.38;8.23;;;28.60;61.10;;;;;;5033266;28;20033;-71
2021/07/27 05:58:51;;;;;;;20.60;9.15;;;28.60;60.40;;;;;;5036394;28;20026;-72
2021/07/27 06:01:17;;;;;;;11.65;8.38;;;28.60;60.20;;;;;;5039847;28;20033;-72
2021/07/27 06:03:42;;;;;;;12.43;7.85;;;28.70;60.30;;;;;;5038627;28;20119;-72
2021/07/27 06:06:08;;;;;;;13.77;8.30;;;28.70;59.90;;;;;;5039752;28;20029;-72
2021/07/27 06:08:34;;;;;;;12.75;8.20;;;28.80;59.70;;;;;;5039894;28;20029;-71
2021/07/27 06:11:02;;;;;;;11.82;8.38;;;28.90;59.70;;;;;;5038496;28;20467;-71
2021/07/27 06:13:28;;;;;;;11.57;7.95;;;29.00;59.70;;;;;;5039772;28;20037;-71
2021/07/27 06:15:55;;;;;;;9.38;7.97;;;29.10;59.30;;;;;;5040262;28;20025;-71
2021/07/27 06:18:21;;;;;;;18.60;8.60;;;29.20;58.90;;;;;;5039927;28;20052;-72
2021/07/27 06:20:46;;;;;;;13.88;9.50;;;29.30;59.00;;;;;;5039544;28;20481;-72
2021/07/27 06:23:12;;;;;;;14.82;8.75;;;29.40;58.70;;;;;;5040021;28;20100;-71
2021/07/27 06:25:38;;;;;;;13.57;8.63;;;29.50;58.70;;;;;;5039909;28;20030;-72
2021/07/27 06:28:05;;;;;;;13.57;8.73;;;29.60;58.80;;;;;;5039808;28;20029;-72
2021/07/27 06:30:31;;;;;;;17.13;9.00;;;29.70;58.80;;;;;;5040319;28;20475;-72
2021/07/27 06:32:57;;;;;;;21.45;10.45;;;29.80;59.10;;;;;;5039621;28;20095;-74
2021/07/27 06:35:23;;;;;;;17.00;10.23;;;30.00;59.50;;;;;;5039522;28;20029;-72
2021/07/27 06:37:49;;;;;;;11.80;9.57;;;30.00;59.40;;;;;;5039643;28;20116;-72
2021/07/27 06:40:14;;;;;;;17.15;8.90;;;30.10;59.60;;;;;;5039834;28;20475;-76
2021/07/27 06:42:40;;;;;;;15.32;9.05;;;30.20;59.90;;;;;;5040356;28;20029;-72
2021/07/27 06:45:09;;;;;;;16.90;8.98;;;30.20;59.60;;;;;;5039737;28;20021;-72
2021/07/27 06:47:34;;;;;;;15.45;9.45;;;30.30;59.90;;;;;;5039892;28;20422;-72
2021/07/27 06:50:00;;;;;;;15.48;9.75;;;30.30;60.60;;;;;;5039528;28;20029;-72
2021/07/27 06:52:26;;;;;;;12.68;8.93;;;30.40;60.90;;;;;;5038801;28;20033;-76
2021/07/27 06:54:52;;;;;;;12.85;9.98;;;30.40;60.80;;;;;;5039434;28;20055;-72
2021/07/27 06:57:18;;;;;;;16.17;10.85;;;30.50;60.90;;;;;;5039182;28;20104;-72
2021/07/27 06:59:44;;;;;;;18.45;9.65;;;30.50;61.20;;;;;;5039126;28;20074;-73
2021/07/27 07:02:09;;;;;;;18.55;10.13;;;30.50;61.60;;;;;;5039378;28;20377;-72
2021/07/27 07:04:35;;;;;;;15.25;10.18;;;30.50;61.40;;;;;;5039814;28;20035;-72
2021/07/27 07:07:01;;;;;;;16.92;10.50;;;30.60;61.00;;;;;;5039774;28;20037;-71
2021/07/27 07:09:26;;;;;;;16.77;11.38;;;30.60;60.90;;;;;;5038276;28;20468;-72
2021/07/27 07:11:52;;;;;;;17.65;11.43;;;30.70;61.00;;;;;;5036174;28;20096;-72
2021/07/27 07:14:18;;;;;;;15.90;11.70;;;30.70;61.00;;;;;;5035963;28;20037;-72
2021/07/27 07:16:43;;;;;;;20.98;11.30;;;30.70;61.00;;;;;;5036400;28;20033;-72
2021/07/27 07:19:09;;;;;;;18.17;10.93;;;30.80;60.60;;;;;;5035979;28;20021;-72
2021/07/27 07:21:35;;;;;;;15.32;10.77;;;30.80;60.50;;;;;;5036176;28;20055;-72
2021/07/27 07:24:00;;;;;;;16.50;11.25;;;30.90;60.60;;;;;;5035996;28;20072;-73
2021/07/27 07:26:26;;;;;;;16.75;11.20;;;30.90;60.50;;;;;;5036411;28;20037;-72
2021/07/27 07:28:52;;;;;;;14.30;10.80;;;31.00;60.30;;;;;;5035585;28;20025;-73
2021/07/27 07:31:18;;;;;;;14.77;10.73;;;31.00;60.20;;;;;;5035760;28;20021;-73
2021/07/27 07:33:44;;;;;;;20.08;10.57;;;31.10;60.10;;;;;;5035054;28;20112;-72
2021/07/27 07:36:14;;;;;;;14.23;10.45;;;31.20;60.20;;;;;;5035909;28;20037;-72
2021/07/27 07:38:43;;;;;;;23.08;11.38;;;31.20;60.90;;;;;;5036249;28;20431;-72
2021/07/27 07:41:09;;;;;;;15.70;10.65;;;31.30;60.30;;;;;;5035890;28;20037;-72
2021/07/27 07:43:36;;;;;;;17.85;11.38;;;31.30;60.20;;;;;;5035994;28;20029;-72
2021/07/27 07:46:02;;;;;;;22.17;11.77;;;31.40;60.10;;;;;;5034235;28;20059;-72
2021/07/27 07:48:27;;;;;;;15.43;10.70;;;31.50;60.20;;;;;;5035781;28;20080;-72
2021/07/27 07:50:53;;;;;;;16.08;11.68;;;31.50;60.10;;;;;;5035429;28;20049;-72
2021/07/27 07:53:19;;;;;;;19.30;11.55;;;31.50;60.00;;;;;;5035334;28;20107;-73
2021/07/27 07:55:45;;;;;;;14.85;11.50;;;31.60;60.00;;;;;;5035095;28;20029;-72
2021/07/27 07:58:10;;;;;;;20.58;11.77;;;31.60;59.80;;;;;;5035279;28;20041;-72
2021/07/27 08:00:36;;;;;;;16.90;12.32;;;31.70;59.80;;;;;;5035132;28;20105;-72
2021/07/27 08:03:03;;;;;;;18.92;12.40;;;31.80;59.80;;;;;;5035766;28;20049;-73
2021/07/27 08:05:29;;;;;;;20.92;13.27;;;31.80;59.40;;;;;;5035707;28;20053;-73
2021/07/27 08:07:54;;;;;;;23.40;13.98;;;31.90;59.50;;;;;;5035121;28;20391;-73
2021/07/27 08:12:12;;;;;;;19.42;14.13;;;32.00;59.40;;;;;;5033806;28;20025;-75
2021/07/27 08:14:13;;;;;;;24.58;13.45;;;32.00;59.20;;;;;;4986523;28;20114;-74
2021/07/27 08:16:39;;;;;;;22.73;13.38;;;32.10;59.10;;;;;;4992978;28;20465;-72
2021/07/27 08:19:05;;;;;;;24.90;14.00;;;32.20;59.00;;;;;;5018312;28;20037;-73
2021/07/27 08:21:30;;;;;;;24.92;14.50;;;32.20;58.90;;;;;;5034337;28;20092;-73
2021/07/27 08:23:56;;;;;;;21.38;13.25;;;32.20;58.80;;;;;;5033299;28;20116;-73
2021/07/27 08:26:22;;;;;;;17.00;11.20;;;32.30;58.80;;;;;;5034749;28;20061;-74
2021/07/27 08:28:48;;;;;;;24.50;11.02;;;32.40;58.60;;;;;;5034990;28;20033;-73
2021/07/27 08:31:15;;;;;;;20.92;11.15;;;32.50;58.30;;;;;;5034847;28;20026;-73
2021/07/27 08:33:41;;;;;;;16.65;9.85;;;32.70;58.00;;;;;;5034322;28;20064;-71
2021/07/27 08:36:08;;;;;;;15.75;9.95;;;32.80;58.10;;;;;;5034644;28;20087;-72
2021/07/27 08:38:34;;;;;;;15.95;9.70;;;33.00;57.30;;;;;;5034457;28;20082;-72
2021/07/27 08:41:01;;;;;;;18.58;9.40;;;33.20;56.80;;;;;;5034721;28;20026;-72
2021/07/27 08:43:27;;;;;;;17.83;9.30;;;33.30;56.30;;;;;;5034552;28;20040;-71
2021/07/27 08:45:53;;;;;;;19.55;9.45;;;33.50;56.60;;;;;;5034157;28;20364;-73
2021/07/27 08:48:19;;;;;;;14.80;9.38;;;33.60;55.60;;;;;;5032782;28;20036;-72
2021/07/27 08:50:46;;;;;;;19.88;9.23;;;33.80;55.30;;;;;;5033858;28;20029;-72
2021/07/27 08:53:12;;;;;;;13.70;8.98;;;33.90;54.90;;;;;;5033285;28;20108;-73
2021/07/27 08:55:38;;;;;;;17.20;9.38;;;34.20;54.40;;;;;;5034145;28;20438;-73
2021/07/27 08:58:04;;;;;;;19.60;9.70;;;34.30;54.00;;;;;;5033935;28;20107;-74
2021/07/27 09:00:32;;;;;;;17.45;9.45;;;34.50;53.70;;;;;;5034414;28;20021;-72
2021/07/27 09:03:08;;;;;;;23.00;9.65;;;34.70;53.50;;;;;;5033805;28;20449;-72
2021/07/27 09:05:34;;;;;;;17.38;9.38;;;34.80;53.20;;;;;;5034398;28;20451;-72
2021/07/27 09:08:03;;;;;;;17.70;9.35;;;34.90;53.00;;;;;;5033765;28;20081;-72
2021/07/27 09:10:30;;;;;;;17.00;8.85;;;35.10;52.50;;;;;;5033817;28;20025;-73
2021/07/27 09:13:02;;;;;;;14.18;9.20;;;35.20;52.30;;;;;;5033330;28;20486;-73
2021/07/27 09:15:33;;;;;;;16.83;8.68;;;35.40;52.20;;;;;;5033872;28;20025;-73
2021/07/27 09:18:01;;;;;;;20.08;9.32;;;35.60;51.80;;;;;;5033827;28;20034;-73
2021/07/27 09:20:34;;;;;;;18.65;8.30;;;35.70;51.30;;;;;;5033861;28;20036;-73
2021/07/27 09:23:04;;;;;;;21.70;8.80;;;36.00;50.80;;;;;;5033611;28;20112;-73
2021/07/27 09:25:31;;;;;;;21.65;9.27;;;36.10;50.60;;;;;;5033982;28;20403;-74
2021/07/27 09:28:00;;;;;;;13.75;8.23;;;36.40;50.10;;;;;;5034045;28;20041;-72
2021/07/27 09:30:26;;;;;;;14.07;8.18;;;36.70;49.70;;;;;;5033009;28;20380;-72
2021/07/27 09:32:52;;;;;;;13.27;8.68;;;37.00;49.20;;;;;;5033463;28;20030;-74
2021/07/27 09:35:24;;;;;;;14.43;8.57;;;37.30;48.70;;;;;;5033563;28;20029;-72
2021/07/27 09:38:10;;;;;;;13.43;7.72;;;37.50;48.00;;;;;;5033624;28;20060;-73
2021/07/27 09:41:07;;;;;;;19.38;8.73;;;37.80;47.40;;;;;;5033379;28;20112;-74
2021/07/27 09:43:33;;;;;;;10.50;7.43;;;38.10;47.20;;;;;;5034176;28;20029;-73
2021/07/27 09:46:01;;;;;;;17.80;8.27;;;38.40;46.60;;;;;;5033768;28;20021;-72
2021/07/27 09:48:28;;;;;;;11.52;7.97;;;38.60;46.20;;;;;;5033461;28;20494;-72
2021/07/27 09:51:00;;;;;;;19.80;8.05;;;38.90;46.20;;;;;;5033384;28;20029;-72
2021/07/27 09:53:26;;;;;;;10.68;7.45;;;39.20;45.70;;;;;;5033362;28;20026;-73
2021/07/27 09:55:52;;;;;;;8.55;6.53;;;39.50;44.70;;;;;;5033635;28;20033;-73
2021/07/27 09:58:18;;;;;;;13.27;7.38;;;39.60;43.60;;;;;;5034004;28;20028;-75
2021/07/27 10:01:03;;;;;;;12.55;7.18;;;39.70;42.90;;;;;;5032860;28;20033;-73
2021/07/27 10:03:34;;;;;;;9.05;5.88;;;39.80;42.30;;;;;;5033597;28;20044;-73
2021/07/27 10:06:01;;;;;;;11.63;6.03;;;40.00;41.10;;;;;;5033821;28;20382;-73
2021/07/27 10:08:34;;;;;;;14.23;5.40;;;40.20;40.20;;;;;;5033535;28;20030;-72
2021/07/27 10:11:13;;;;;;;10.38;5.63;;;40.30;39.80;;;;;;5033752;28;20029;-72
2021/07/27 10:13:48;;;;;;;14.40;5.15;;;40.40;39.30;;;;;;5033459;28;20026;-72
2021/07/27 10:16:22;;;;;;;13.90;5.25;;;40.60;38.70;;;;;;5032333;28;20033;-73
2021/07/27 10:18:49;;;;;;;12.55;4.28;;;40.80;38.10;;;;;;5033580;28;20104;-72
2021/07/27 10:21:23;;;;;;;19.60;5.20;;;41.10;37.70;;;;;;5032816;28;20021;-72
2021/07/27 10:23:54;;;;;;;7.68;4.03;;;41.30;37.70;;;;;;5033357;28;20034;-75
2021/07/27 10:26:33;;;;;;;14.07;4.65;;;41.20;36.10;;;;;;5033178;28;20033;-71
2021/07/27 10:29:00;;;;;;;8.18;4.22;;;40.80;36.20;;;;;;5033254;28;20036;-73
2021/07/27 10:31:45;;;;;;;8.48;4.20;;;40.80;36.30;;;;;;5033305;28;20021;-72
2021/07/27 10:34:13;;;;;;;7.03;3.95;;;41.10;36.00;;;;;;5033721;28;20420;-73
2021/07/27 10:36:47;;;;;;;13.00;5.05;;;41.00;35.60;;;;;;5032676;28;20476;-72
2021/07/27 10:39:17;;;;;;;8.30;4.05;;;40.50;35.70;;;;;;5032791;28;20379;-73
2021/07/27 10:41:44;;;;;;;18.90;4.75;;;40.20;35.30;;;;;;5033038;28;20041;-72
2021/07/27 10:44:22;;;;;;;6.70;4.07;;;40.40;35.50;;;;;;5033402;28;20026;-75
2021/07/27 10:46:52;;;;;;;5.95;3.67;;;40.80;35.40;;;;;;5035652;28;20191;-73
2021/07/27 10:49:22;;;;;;;5.43;3.25;;;41.20;35.20;;;;;;5037704;28;20036;-73
2021/07/27 10:51:49;;;;;;;5.22;3.95;;;41.50;34.90;;;;;;5036853;28;20032;-73
2021/07/27 10:54:17;;;;;;;8.43;3.85;;;41.80;34.70;;;;;;5036080;28;20359;-74
2021/07/27 10:57:02;;;;;;;5.05;3.38;;;41.60;34.30;;;;;;5037308;28;20046;-72
2021/07/27 10:59:31;;;;;;;5.28;3.35;;;41.30;34.30;;;;;;5036898;28;20029;-76
2021/07/27 11:01:58;;;;;;;6.22;3.38;;;41.50;34.20;;;;;;5036247;28;20092;-73
2021/07/27 11:04:32;;;;;;;5.57;3.50;;;41.80;33.90;;;;;;5037192;28;20057;-73
2021/07/27 11:07:14;;;;;;;8.40;3.75;;;42.10;33.40;;;;;;5036691;28;20037;-73
2021/07/27 11:09:54;;;;;;;7.57;4.03;;;42.10;33.90;;;;;;5036508;28;20079;-73
2021/07/27 11:12:32;;;;;;;8.30;3.80;;;42.40;33.80;;;;;;5036316;28;20049;-72
2021/07/27 11:15:26;;;;;;;7.95;3.72;;;42.80;33.70;;;;;;5036108;28;20456;-72
2021/07/27 11:18:00;;;;;;;8.13;3.67;;;43.10;33.10;;;;;;5036458;28;20061;-73
2021/07/27 11:20:31;;;;;;;7.00;3.50;;;43.50;33.10;;;;;;5035735;28;20431;-73
2021/07/27 11:22:58;;;;;;;3.97;3.40;;;43.90;32.60;;;;;;5035660;28;20112;-74
2021/07/27 11:25:26;;;;;;;7.95;3.40;;;43.90;32.20;;;;;;5035635;28;20108;-74
2021/07/27 11:27:53;;;;;;;6.20;3.78;;;43.70;31.80;;;;;;5034360;28;20037;-73
2021/07/27 11:30:20;;;;;;;6.15;3.65;;;43.50;32.10;;;;;;5035598;28;20071;-74
2021/07/27 11:32:50;;;;;;;10.30;3.95;;;43.60;32.40;;;;;;5035966;28;20025;-74
2021/07/27 11:35:17;;;;;;;10.13;3.38;;;43.80;32.20;;;;;;5036437;28;20160;-73
2021/07/27 11:37:45;;;;;;;6.90;3.47;;;44.20;32.00;;;;;;5035839;28;20383;-73
2021/07/27 11:40:31;;;;;;;4.95;3.25;;;44.40;31.70;;;;;;5035793;28;20040;-75
2021/07/27 11:43:05;;;;;;;7.10;3.97;;;44.80;31.90;;;;;;5035309;28;20455;-75
2021/07/27 11:45:38;;;;;;;4.85;3.60;;;45.10;32.10;;;;;;5035570;28;20091;-74
2021/07/27 11:48:05;;;;;;;17.25;4.85;;;45.10;31.40;;;;;;5035447;28;20463;-74
2021/07/27 11:50:40;;;;;;;6.53;3.40;;;45.20;31.30;;;;;;5034021;28;20029;-74
2021/07/27 11:53:07;;;;;;;7.40;3.72;;;45.40;31.40;;;;;;5035246;28;20476;-75
2021/07/27 11:55:36;;;;;;;6.95;3.90;;;45.50;31.40;;;;;;5035240;28;20475;-73
2021/07/27 11:58:03;;;;;;;7.95;3.28;;;45.90;31.30;;;;;;5034787;28;20116;-73
2021/07/27 12:00:33;;;;;;;9.88;3.60;;;46.30;31.10;;;;;;5034475;28;20100;-74
2021/07/27 12:02:59;;;;;;;6.55;3.38;;;46.40;30.30;;;;;;5035238;28;20053;-72
2021/07/27 12:05:25;;;;;;;6.40;3.75;;;46.20;30.00;;;;;;5035381;28;20411;-73
2021/07/27 12:07:52;;;;;;;7.35;3.70;;;45.90;30.10;;;;;;5035268;28;20067;-73
2021/07/27 12:10:18;;;;;;;7.85;3.85;;;45.90;30.30;;;;;;5034921;28;20030;-73
2021/07/27 12:12:44;;;;;;;6.72;3.85;;;46.00;30.30;;;;;;5034678;28;20480;-74
2021/07/27 12:15:15;;;;;;;5.97;3.40;;;46.20;30.50;;;;;;5034928;28;20021;-74
2021/07/27 12:17:42;;;;;;;5.50;3.50;;;46.40;30.40;;;;;;5034752;28;20037;-74
2021/07/27 12:20:13;;;;;;;5.55;3.55;;;46.80;30.20;;;;;;5033942;28;20391;-73
2021/07/27 12:22:42;;;;;;;12.25;3.95;;;47.10;29.90;;;;;;5035719;28;20033;-73
2021/07/27 12:25:08;;;;;;;7.65;3.95;;;47.30;30.00;;;;;;5035298;28;20052;-75
2021/07/27 12:27:34;;;;;;;8.25;3.88;;;47.50;30.00;;;;;;5035088;28;20079;-73
2021/07/27 12:30:00;;;;;;;6.28;3.47;;;47.60;29.80;;;;;;5034493;28;20072;-73
2021/07/27 12:32:25;;;;;;;11.40;3.83;;;47.40;29.80;;;;;;5034590;28;20028;-74
2021/07/27 12:34:52;;;;;;;9.52;3.72;;;47.50;29.90;;;;;;5034599;28;20025;-74
2021/07/27 12:37:21;;;;;;;7.53;4.20;;;47.70;29.80;;;;;;5034817;28;20445;-73
2021/07/27 12:39:47;;;;;;;8.95;3.85;;;47.80;29.70;;;;;;5034231;28;20472;-74
2021/07/27 12:42:14;;;;;;;6.25;3.80;;;47.70;29.40;;;;;;5034462;28;20029;-74
2021/07/27 12:44:41;;;;;;;4.65;3.80;;;47.50;29.30;;;;;;5034283;28;20083;-74
2021/07/27 12:47:07;;;;;;;8.38;3.40;;;47.10;29.20;;;;;;5034516;28;20025;-73
2021/07/27 12:49:34;;;;;;;4.90;3.78;;;46.70;29.10;;;;;;5034698;28;20036;-73
2021/07/27 12:52:00;;;;;;;5.47;3.90;;;46.50;29.20;;;;;;5033996;28;20025;-73
2021/07/27 12:54:26;;;;;;;5.30;4.10;;;46.20;29.20;;;;;;5034788;28;20474;-73
2021/07/27 12:56:51;;;;;;;4.05;3.60;;;45.90;29.20;;;;;;5034490;28;20054;-73